sensor_id;sensor_type;location;lat;lon;timestamp;temperature;humidity
19892;DHT22;10108;50.142;8.724;2023-06-04T00:00:19;16.50;64.90
19892;DHT22;10108;50.142;8.724;2023-06-04T00:02:45;16.40;64.30
19892;DHT22;10108;50.142;8.724;2023-06-04T00:05:11;16.40;64.40
19892;DHT22;10108;50.142;8.724;2023-06-04T00:07:37;16.40;64.20
19892;DHT22;10108;50.142;8.724;2023-06-04T00:10:04;16.40;64.30
19892;DHT22;10108;50.142;8.724;2023-06-04T00:12:30;16.40;64.20
19892;DHT22;10108;50.142;8.724;2023-06-04T00:14:56;16.30;64.30
19892;DHT22;10108;50.142;8.724;2023-06-04T00:17:23;16.30;64.70
19892;DHT22;10108;50.142;8.724;2023-06-04T00:19:49;16.30;64.60
19892;DHT22;10108;50.142;8.724;2023-06-04T00:22:15;16.30;64.60
19892;DHT22;10108;50.142;8.724;2023-06-04T00:24:41;16.30;64.70
19892;DHT22;10108;50.142;8.724;2023-06-04T00:27:08;16.30;64.50
19892;DHT22;10108;50.142;8.724;2023-06-04T00:29:34;16.30;64.20
19892;DHT22;10108;50.142;8.724;2023-06-04T00:32:01;16.20;64.10
19892;DHT22;10108;50.142;8.724;2023-06-04T00:34:28;16.20;64.70
19892;DHT22;10108;50.142;8.724;2023-06-04T00:36:54;16.20;64.50
19892;DHT22;10108;50.142;8.724;2023-06-04T00:39:20;16.20;64.60
19892;DHT22;10108;50.142;8.724;2023-06-04T00:41:46;16.10;64.40
19892;DHT22;10108;50.142;8.724;2023-06-04T00:44:12;16.10;64.30
19892;DHT22;10108;50.142;8.724;2023-06-04T00:46:38;16.10;64.40
19892;DHT22;10108;50.142;8.724;2023-06-04T00:49:05;16.10;64.40
19892;DHT22;10108;50.142;8.724;2023-06-04T00:51:32;16.10;64.60
19892;DHT22;10108;50.142;8.724;2023-06-04T00:53:59;16.10;64.60
19892;DHT22;10108;50.142;8.724;2023-06-04T00:56:27;16.00;64.60
19892;DHT22;10108;50.142;8.724;2023-06-04T00:58:54;16.10;64.50
19892;DHT22;10108;50.142;8.724;2023-06-04T01:04:11;16.00;64.70
19892;DHT22;10108;50.142;8.724;2023-06-04T01:06:42;16.00;64.80
19892;DHT22;10108;50.142;8.724;2023-06-04T01:09:10;16.00;64.80
19892;DHT22;10108;50.142;8.724;2023-06-04T01:11:38;16.00;64.90
19892;DHT22;10108;50.142;8.724;2023-06-04T01:14:06;16.00;64.70
19892;DHT22;10108;50.142;8.724;2023-06-04T01:22:23;15.90;65.20
19892;DHT22;10108;50.142;8.724;2023-06-04T01:24:56;15.90;65.80
19892;DHT22;10108;50.142;8.724;2023-06-04T01:27:24;15.90;65.70
19892;DHT22;10108;50.142;8.724;2023-06-04T01:29:51;15.80;65.20
19892;DHT22;10108;50.142;8.724;2023-06-04T01:32:17;15.80;65.40
19892;DHT22;10108;50.142;8.724;2023-06-04T01:34:47;15.80;65.40
19892;DHT22;10108;50.142;8.724;2023-06-04T01:37:13;15.80;65.40
19892;DHT22;10108;50.142;8.724;2023-06-04T01:39:39;15.80;66.00
19892;DHT22;10108;50.142;8.724;2023-06-04T01:42:05;15.80;66.40
19892;DHT22;10108;50.142;8.724;2023-06-04T01:44:32;15.80;65.60
19892;DHT22;10108;50.142;8.724;2023-06-04T01:46:58;15.70;65.00
19892;DHT22;10108;50.142;8.724;2023-06-04T01:49:24;15.70;65.40
19892;DHT22;10108;50.142;8.724;2023-06-04T01:51:50;15.70;65.90
19892;DHT22;10108;50.142;8.724;2023-06-04T01:54:16;15.70;65.30
19892;DHT22;10108;50.142;8.724;2023-06-04T01:56:43;15.60;64.70
19892;DHT22;10108;50.142;8.724;2023-06-04T01:59:09;15.70;64.90
19892;DHT22;10108;50.142;8.724;2023-06-04T02:01:40;15.60;65.00
19892;DHT22;10108;50.142;8.724;2023-06-04T02:04:06;15.60;65.30
19892;DHT22;10108;50.142;8.724;2023-06-04T02:06:33;15.60;65.20
19892;DHT22;10108;50.142;8.724;2023-06-04T02:08:59;15.60;65.80
19892;DHT22;10108;50.142;8.724;2023-06-04T02:11:26;15.60;65.80
19892;DHT22;10108;50.142;8.724;2023-06-04T02:13:52;15.60;65.60
19892;DHT22;10108;50.142;8.724;2023-06-04T02:16:19;15.60;65.50
19892;DHT22;10108;50.142;8.724;2023-06-04T02:18:45;15.60;65.80
19892;DHT22;10108;50.142;8.724;2023-06-04T02:21:11;15.60;65.70
19892;DHT22;10108;50.142;8.724;2023-06-04T02:23:38;15.60;65.90
19892;DHT22;10108;50.142;8.724;2023-06-04T02:26:04;15.50;65.60
19892;DHT22;10108;50.142;8.724;2023-06-04T02:28:31;15.50;65.80
19892;DHT22;10108;50.142;8.724;2023-06-04T02:30:57;15.50;65.50
19892;DHT22;10108;50.142;8.724;2023-06-04T02:33:23;15.50;65.90
19892;DHT22;10108;50.142;8.724;2023-06-04T02:35:49;15.50;66.10
19892;DHT22;10108;50.142;8.724;2023-06-04T02:38:15;15.50;66.20
19892;DHT22;10108;50.142;8.724;2023-06-04T02:40:42;15.50;65.80
19892;DHT22;10108;50.142;8.724;2023-06-04T02:43:09;15.50;65.90
19892;DHT22;10108;50.142;8.724;2023-06-04T02:45:35;15.50;65.90
19892;DHT22;10108;50.142;8.724;2023-06-04T02:48:02;15.40;66.30
19892;DHT22;10108;50.142;8.724;2023-06-04T02:50:28;15.40;66.40
19892;DHT22;10108;50.142;8.724;2023-06-04T02:52:54;15.40;66.60
19892;DHT22;10108;50.142;8.724;2023-06-04T02:55:20;15.40;66.30
19892;DHT22;10108;50.142;8.724;2023-06-04T02:57:46;15.30;66.60
19892;DHT22;10108;50.142;8.724;2023-06-04T03:00:14;15.30;66.40
19892;DHT22;10108;50.142;8.724;2023-06-04T03:02:41;15.30;66.30
19892;DHT22;10108;50.142;8.724;2023-06-04T03:05:10;15.30;66.60
19892;DHT22;10108;50.142;8.724;2023-06-04T03:07:40;15.30;66.80
19892;DHT22;10108;50.142;8.724;2023-06-04T03:10:12;15.30;66.80
19892;DHT22;10108;50.142;8.724;2023-06-04T03:12:39;15.30;66.40
19892;DHT22;10108;50.142;8.724;2023-06-04T03:15:05;15.20;66.70
19892;DHT22;10108;50.142;8.724;2023-06-04T03:17:32;15.20;67.10
19892;DHT22;10108;50.142;8.724;2023-06-04T03:19:58;15.20;66.90
19892;DHT22;10108;50.142;8.724;2023-06-04T03:22:24;15.20;66.80
19892;DHT22;10108;50.142;8.724;2023-06-04T03:24:51;15.20;67.20
19892;DHT22;10108;50.142;8.724;2023-06-04T03:27:19;15.20;67.10
19892;DHT22;10108;50.142;8.724;2023-06-04T03:29:45;15.10;66.90
19892;DHT22;10108;50.142;8.724;2023-06-04T03:32:13;15.10;67.20
19892;DHT22;10108;50.142;8.724;2023-06-04T03:34:39;15.10;66.90
19892;DHT22;10108;50.142;8.724;2023-06-04T03:37:05;15.10;67.30
19892;DHT22;10108;50.142;8.724;2023-06-04T03:39:32;15.10;67.30
19892;DHT22;10108;50.142;8.724;2023-06-04T03:42:00;15.10;67.20
19892;DHT22;10108;50.142;8.724;2023-06-04T03:44:27;15.10;67.30
19892;DHT22;10108;50.142;8.724;2023-06-04T03:46:53;15.10;67.50
19892;DHT22;10108;50.142;8.724;2023-06-04T03:49:20;15.00;67.60
19892;DHT22;10108;50.142;8.724;2023-06-04T03:51:48;15.00;67.20
19892;DHT22;10108;50.142;8.724;2023-06-04T03:54:14;15.00;67.30
19892;DHT22;10108;50.142;8.724;2023-06-04T03:56:46;15.00;67.10
19892;DHT22;10108;50.142;8.724;2023-06-04T03:59:13;15.00;67.10
19892;DHT22;10108;50.142;8.724;2023-06-04T04:01:39;15.00;67.10
19892;DHT22;10108;50.142;8.724;2023-06-04T04:04:05;14.90;67.50
19892;DHT22;10108;50.142;8.724;2023-06-04T04:06:31;14.90;67.30
19892;DHT22;10108;50.142;8.724;2023-06-04T04:08:58;14.90;67.40
19892;DHT22;10108;50.142;8.724;2023-06-04T04:11:24;14.90;67.40
19892;DHT22;10108;50.142;8.724;2023-06-04T04:13:51;14.90;67.80
19892;DHT22;10108;50.142;8.724;2023-06-04T04:16:18;14.90;68.20
19892;DHT22;10108;50.142;8.724;2023-06-04T04:18:45;14.90;68.40
19892;DHT22;10108;50.142;8.724;2023-06-04T04:21:11;14.90;68.00
19892;DHT22;10108;50.142;8.724;2023-06-04T04:23:39;14.90;67.90
19892;DHT22;10108;50.142;8.724;2023-06-04T04:26:09;15.00;68.10
19892;DHT22;10108;50.142;8.724;2023-06-04T04:28:36;14.90;67.80
19892;DHT22;10108;50.142;8.724;2023-06-04T04:31:02;14.90;68.50
19892;DHT22;10108;50.142;8.724;2023-06-04T04:33:32;15.00;68.40
19892;DHT22;10108;50.142;8.724;2023-06-04T04:36:03;15.00;67.70
19892;DHT22;10108;50.142;8.724;2023-06-04T04:38:29;15.00;68.00
19892;DHT22;10108;50.142;8.724;2023-06-04T04:41:00;14.90;68.00
19892;DHT22;10108;50.142;8.724;2023-06-04T04:43:31;14.90;68.60
19892;DHT22;10108;50.142;8.724;2023-06-04T04:45:59;14.90;67.80
19892;DHT22;10108;50.142;8.724;2023-06-04T04:48:26;15.00;67.90
19892;DHT22;10108;50.142;8.724;2023-06-04T04:50:53;15.00;68.10
19892;DHT22;10108;50.142;8.724;2023-06-04T04:53:20;15.00;68.30
19892;DHT22;10108;50.142;8.724;2023-06-04T04:55:46;15.00;68.60
19892;DHT22;10108;50.142;8.724;2023-06-04T04:58:12;15.00;68.30
19892;DHT22;10108;50.142;8.724;2023-06-04T05:00:38;15.00;68.40
19892;DHT22;10108;50.142;8.724;2023-06-04T05:03:05;15.10;68.60
19892;DHT22;10108;50.142;8.724;2023-06-04T05:05:32;15.10;68.70
19892;DHT22;10108;50.142;8.724;2023-06-04T05:07:59;15.10;68.50
19892;DHT22;10108;50.142;8.724;2023-06-04T05:10:30;15.10;69.30
19892;DHT22;10108;50.142;8.724;2023-06-04T05:12:58;15.10;69.00
19892;DHT22;10108;50.142;8.724;2023-06-04T05:15:32;15.20;69.50
19892;DHT22;10108;50.142;8.724;2023-06-04T05:17:59;15.20;69.10
19892;DHT22;10108;50.142;8.724;2023-06-04T05:20:29;15.20;69.40
19892;DHT22;10108;50.142;8.724;2023-06-04T05:22:56;15.20;69.50
19892;DHT22;10108;50.142;8.724;2023-06-04T05:25:23;15.20;69.50
19892;DHT22;10108;50.142;8.724;2023-06-04T05:27:49;15.30;69.30
19892;DHT22;10108;50.142;8.724;2023-06-04T05:30:17;15.40;69.60
19892;DHT22;10108;50.142;8.724;2023-06-04T05:32:44;15.50;69.40
19892;DHT22;10108;50.142;8.724;2023-06-04T05:35:13;15.60;69.40
19892;DHT22;10108;50.142;8.724;2023-06-04T05:37:41;15.60;69.20
19892;DHT22;10108;50.142;8.724;2023-06-04T05:40:09;15.70;69.30
19892;DHT22;10108;50.142;8.724;2023-06-04T05:42:36;15.70;69.70
19892;DHT22;10108;50.142;8.724;2023-06-04T05:45:03;15.80;70.00
19892;DHT22;10108;50.142;8.724;2023-06-04T05:47:30;15.80;69.80
19892;DHT22;10108;50.142;8.724;2023-06-04T05:49:56;15.90;70.10
19892;DHT22;10108;50.142;8.724;2023-06-04T05:52:23;15.90;69.40
19892;DHT22;10108;50.142;8.724;2023-06-04T05:54:50;16.00;69.50
19892;DHT22;10108;50.142;8.724;2023-06-04T05:57:16;16.10;69.70
19892;DHT22;10108;50.142;8.724;2023-06-04T05:59:43;16.20;69.60
19892;DHT22;10108;50.142;8.724;2023-06-04T06:02:13;16.20;69.10
19892;DHT22;10108;50.142;8.724;2023-06-04T06:04:40;16.20;69.50
19892;DHT22;10108;50.142;8.724;2023-06-04T06:07:06;16.20;70.20
19892;DHT22;10108;50.142;8.724;2023-06-04T06:09:32;16.20;69.90
19892;DHT22;10108;50.142;8.724;2023-06-04T06:11:59;16.20;69.90
19892;DHT22;10108;50.142;8.724;2023-06-04T06:14:25;16.20;69.80
19892;DHT22;10108;50.142;8.724;2023-06-04T06:16:52;16.30;70.40
19892;DHT22;10108;50.142;8.724;2023-06-04T06:19:19;16.30;70.00
19892;DHT22;10108;50.142;8.724;2023-06-04T06:21:45;16.30;69.40
19892;DHT22;10108;50.142;8.724;2023-06-04T06:24:12;16.30;69.80
19892;DHT22;10108;50.142;8.724;2023-06-04T06:26:38;16.30;70.10
19892;DHT22;10108;50.142;8.724;2023-06-04T06:29:06;16.30;69.80
19892;DHT22;10108;50.142;8.724;2023-06-04T06:31:33;16.30;70.30
19892;DHT22;10108;50.142;8.724;2023-06-04T06:33:59;16.40;70.80
19892;DHT22;10108;50.142;8.724;2023-06-04T06:36:25;16.40;70.70
19892;DHT22;10108;50.142;8.724;2023-06-04T06:38:52;16.40;70.10
19892;DHT22;10108;50.142;8.724;2023-06-04T06:41:18;16.50;70.20
19892;DHT22;10108;50.142;8.724;2023-06-04T06:43:44;16.50;69.80
19892;DHT22;10108;50.142;8.724;2023-06-04T06:46:10;16.50;69.90
19892;DHT22;10108;50.142;8.724;2023-06-04T06:48:36;16.50;70.50
19892;DHT22;10108;50.142;8.724;2023-06-04T06:51:02;16.60;70.70
19892;DHT22;10108;50.142;8.724;2023-06-04T06:53:28;16.60;70.80
19892;DHT22;10108;50.142;8.724;2023-06-04T06:55:55;16.70;70.80
19892;DHT22;10108;50.142;8.724;2023-06-04T06:58:21;16.70;70.60
19892;DHT22;10108;50.142;8.724;2023-06-04T07:00:49;16.70;69.90
19892;DHT22;10108;50.142;8.724;2023-06-04T07:03:15;16.80;69.90
19892;DHT22;10108;50.142;8.724;2023-06-04T07:05:41;16.80;70.20
19892;DHT22;10108;50.142;8.724;2023-06-04T07:08:07;16.90;69.80
19892;DHT22;10108;50.142;8.724;2023-06-04T07:10:33;16.90;69.40
19892;DHT22;10108;50.142;8.724;2023-06-04T07:12:59;16.90;68.20
19892;DHT22;10108;50.142;8.724;2023-06-04T07:15:25;16.90;68.90
19892;DHT22;10108;50.142;8.724;2023-06-04T07:17:52;17.00;68.30
19892;DHT22;10108;50.142;8.724;2023-06-04T07:20:18;17.00;68.10
19892;DHT22;10108;50.142;8.724;2023-06-04T07:22:44;17.00;68.20
19892;DHT22;10108;50.142;8.724;2023-06-04T07:25:10;17.00;68.50
19892;DHT22;10108;50.142;8.724;2023-06-04T07:27:37;17.10;68.50
19892;DHT22;10108;50.142;8.724;2023-06-04T07:30:03;17.10;68.60
19892;DHT22;10108;50.142;8.724;2023-06-04T07:32:30;17.10;67.30
19892;DHT22;10108;50.142;8.724;2023-06-04T07:34:56;17.10;68.10
19892;DHT22;10108;50.142;8.724;2023-06-04T07:37:22;17.20;68.40
19892;DHT22;10108;50.142;8.724;2023-06-04T07:39:48;17.20;68.50
19892;DHT22;10108;50.142;8.724;2023-06-04T07:42:14;17.20;69.10
19892;DHT22;10108;50.142;8.724;2023-06-04T07:44:40;17.20;68.20
19892;DHT22;10108;50.142;8.724;2023-06-04T07:47:06;17.20;67.80
19892;DHT22;10108;50.142;8.724;2023-06-04T07:49:33;17.30;67.90
19892;DHT22;10108;50.142;8.724;2023-06-04T07:51:59;17.30;69.60
19892;DHT22;10108;50.142;8.724;2023-06-04T07:54:25;17.30;70.10
19892;DHT22;10108;50.142;8.724;2023-06-04T07:56:51;17.30;69.40
19892;DHT22;10108;50.142;8.724;2023-06-04T07:59:22;17.40;69.60
19892;DHT22;10108;50.142;8.724;2023-06-04T08:01:50;17.40;68.70
19892;DHT22;10108;50.142;8.724;2023-06-04T08:04:18;17.50;68.40
19892;DHT22;10108;50.142;8.724;2023-06-04T08:06:44;17.50;67.80
19892;DHT22;10108;50.142;8.724;2023-06-04T08:09:10;17.50;66.70
19892;DHT22;10108;50.142;8.724;2023-06-04T08:11:39;17.60;66.50
19892;DHT22;10108;50.142;8.724;2023-06-04T08:14:05;17.60;67.10
19892;DHT22;10108;50.142;8.724;2023-06-04T08:16:34;17.60;67.60
19892;DHT22;10108;50.142;8.724;2023-06-04T08:19:00;17.60;66.60
19892;DHT22;10108;50.142;8.724;2023-06-04T08:21:27;17.70;68.00
19892;DHT22;10108;50.142;8.724;2023-06-04T08:23:53;17.70;68.20
19892;DHT22;10108;50.142;8.724;2023-06-04T08:26:19;17.70;67.40
19892;DHT22;10108;50.142;8.724;2023-06-04T08:28:49;17.70;66.80
19892;DHT22;10108;50.142;8.724;2023-06-04T08:31:15;17.80;67.80
19892;DHT22;10108;50.142;8.724;2023-06-04T08:33:41;17.80;68.50
19892;DHT22;10108;50.142;8.724;2023-06-04T08:36:07;17.80;67.80
19892;DHT22;10108;50.142;8.724;2023-06-04T08:38:33;17.80;67.60
19892;DHT22;10108;50.142;8.724;2023-06-04T08:43:50;17.90;67.10
19892;DHT22;10108;50.142;8.724;2023-06-04T08:46:17;17.90;67.80
19892;DHT22;10108;50.142;8.724;2023-06-04T08:48:44;17.90;67.40
19892;DHT22;10108;50.142;8.724;2023-06-04T08:51:10;17.90;66.70
19892;DHT22;10108;50.142;8.724;2023-06-04T08:53:37;18.00;66.70
19892;DHT22;10108;50.142;8.724;2023-06-04T08:56:03;18.00;67.10
19892;DHT22;10108;50.142;8.724;2023-06-04T08:58:32;18.10;67.30
19892;DHT22;10108;50.142;8.724;2023-06-04T09:01:00;18.10;67.20
19892;DHT22;10108;50.142;8.724;2023-06-04T09:03:28;18.10;67.00
19892;DHT22;10108;50.142;8.724;2023-06-04T09:05:57;18.10;66.70
19892;DHT22;10108;50.142;8.724;2023-06-04T09:08:24;18.20;65.70
19892;DHT22;10108;50.142;8.724;2023-06-04T09:10:54;18.20;66.90
19892;DHT22;10108;50.142;8.724;2023-06-04T09:13:22;18.20;66.80
19892;DHT22;10108;50.142;8.724;2023-06-04T09:16:04;18.30;67.50
19892;DHT22;10108;50.142;8.724;2023-06-04T09:18:32;18.30;67.30
19892;DHT22;10108;50.142;8.724;2023-06-04T09:21:04;18.30;67.00
19892;DHT22;10108;50.142;8.724;2023-06-04T09:23:44;18.30;67.10
19892;DHT22;10108;50.142;8.724;2023-06-04T09:26:11;18.40;67.50
19892;DHT22;10108;50.142;8.724;2023-06-04T09:28:41;18.40;66.70
19892;DHT22;10108;50.142;8.724;2023-06-04T09:31:09;18.30;66.60
19892;DHT22;10108;50.142;8.724;2023-06-04T09:33:45;18.30;66.80
19892;DHT22;10108;50.142;8.724;2023-06-04T09:36:12;18.30;65.80
19892;DHT22;10108;50.142;8.724;2023-06-04T09:38:38;18.40;65.30
19892;DHT22;10108;50.142;8.724;2023-06-04T09:41:18;18.40;63.90
19892;DHT22;10108;50.142;8.724;2023-06-04T09:43:45;18.40;63.50
19892;DHT22;10108;50.142;8.724;2023-06-04T09:46:13;18.50;61.90
19892;DHT22;10108;50.142;8.724;2023-06-04T09:48:40;18.50;61.20
19892;DHT22;10108;50.142;8.724;2023-06-04T09:53:34;18.60;61.70
19892;DHT22;10108;50.142;8.724;2023-06-04T09:56:02;18.70;62.00
19892;DHT22;10108;50.142;8.724;2023-06-04T09:58:30;18.70;59.30
19892;DHT22;10108;50.142;8.724;2023-06-04T10:00:57;18.70;60.90
19892;DHT22;10108;50.142;8.724;2023-06-04T10:03:24;18.70;61.00
19892;DHT22;10108;50.142;8.724;2023-06-04T10:05:53;18.60;60.80
19892;DHT22;10108;50.142;8.724;2023-06-04T10:08:22;18.70;61.10
19892;DHT22;10108;50.142;8.724;2023-06-04T10:10:51;18.70;59.20
19892;DHT22;10108;50.142;8.724;2023-06-04T10:13:21;18.70;59.10
19892;DHT22;10108;50.142;8.724;2023-06-04T10:15:49;18.80;59.80
19892;DHT22;10108;50.142;8.724;2023-06-04T10:18:16;18.80;59.50
19892;DHT22;10108;50.142;8.724;2023-06-04T10:20:42;18.80;59.30
19892;DHT22;10108;50.142;8.724;2023-06-04T10:23:08;18.80;58.80
19892;DHT22;10108;50.142;8.724;2023-06-04T10:25:35;18.80;58.40
19892;DHT22;10108;50.142;8.724;2023-06-04T10:28:02;18.80;58.50
19892;DHT22;10108;50.142;8.724;2023-06-04T10:30:30;18.90;59.90
19892;DHT22;10108;50.142;8.724;2023-06-04T10:32:57;18.90;60.00
19892;DHT22;10108;50.142;8.724;2023-06-04T10:35:34;18.90;60.00
19892;DHT22;10108;50.142;8.724;2023-06-04T10:38:12;18.90;58.40
19892;DHT22;10108;50.142;8.724;2023-06-04T10:40:39;19.00;58.50
19892;DHT22;10108;50.142;8.724;2023-06-04T10:45:33;19.10;59.10
19892;DHT22;10108;50.142;8.724;2023-06-04T10:48:03;19.10;58.00
19892;DHT22;10108;50.142;8.724;2023-06-04T10:50:29;19.10;58.50
19892;DHT22;10108;50.142;8.724;2023-06-04T10:52:56;19.10;58.10
19892;DHT22;10108;50.142;8.724;2023-06-04T10:55:24;19.10;57.90
19892;DHT22;10108;50.142;8.724;2023-06-04T10:57:55;19.10;57.50
19892;DHT22;10108;50.142;8.724;2023-06-04T11:00:33;19.10;57.20
19892;DHT22;10108;50.142;8.724;2023-06-04T11:03:01;19.10;58.40
19892;DHT22;10108;50.142;8.724;2023-06-04T11:05:38;19.10;58.10
19892;DHT22;10108;50.142;8.724;2023-06-04T11:08:05;19.10;58.10
19892;DHT22;10108;50.142;8.724;2023-06-04T11:10:36;19.10;58.50
19892;DHT22;10108;50.142;8.724;2023-06-04T11:13:03;19.10;57.90
19892;DHT22;10108;50.142;8.724;2023-06-04T11:15:42;19.10;58.10
19892;DHT22;10108;50.142;8.724;2023-06-04T11:18:13;19.10;58.60
19892;DHT22;10108;50.142;8.724;2023-06-04T11:20:39;19.10;59.10
19892;DHT22;10108;50.142;8.724;2023-06-04T11:23:05;19.20;57.00
19892;DHT22;10108;50.142;8.724;2023-06-04T11:25:32;19.20;56.50
19892;DHT22;10108;50.142;8.724;2023-06-04T11:27:59;19.30;56.10
19892;DHT22;10108;50.142;8.724;2023-06-04T11:30:27;19.30;57.00
19892;DHT22;10108;50.142;8.724;2023-06-04T11:33:01;19.30;57.00
19892;DHT22;10108;50.142;8.724;2023-06-04T11:35:27;19.30;56.40
19892;DHT22;10108;50.142;8.724;2023-06-04T11:37:55;19.30;56.30
19892;DHT22;10108;50.142;8.724;2023-06-04T11:40:22;19.30;57.10
19892;DHT22;10108;50.142;8.724;2023-06-04T11:42:49;19.30;57.40
19892;DHT22;10108;50.142;8.724;2023-06-04T11:45:20;19.30;56.90
19892;DHT22;10108;50.142;8.724;2023-06-04T11:47:52;19.30;57.30
19892;DHT22;10108;50.142;8.724;2023-06-04T11:50:19;19.30;57.00
19892;DHT22;10108;50.142;8.724;2023-06-04T11:52:48;19.20;56.50
19892;DHT22;10108;50.142;8.724;2023-06-04T11:55:15;19.20;56.60
19892;DHT22;10108;50.142;8.724;2023-06-04T11:57:49;19.30;57.00
19892;DHT22;10108;50.142;8.724;2023-06-04T12:00:17;19.30;57.50
19892;DHT22;10108;50.142;8.724;2023-06-04T12:02:54;19.30;58.30
19892;DHT22;10108;50.142;8.724;2023-06-04T12:05:28;19.40;58.50
19892;DHT22;10108;50.142;8.724;2023-06-04T12:08:09;19.30;57.80
19892;DHT22;10108;50.142;8.724;2023-06-04T12:10:40;19.40;57.50
19892;DHT22;10108;50.142;8.724;2023-06-04T12:13:06;19.40;57.10
19892;DHT22;10108;50.142;8.724;2023-06-04T12:15:32;19.40;56.10
19892;DHT22;10108;50.142;8.724;2023-06-04T12:17:58;19.50;56.30
19892;DHT22;10108;50.142;8.724;2023-06-04T12:20:35;19.50;56.80
19892;DHT22;10108;50.142;8.724;2023-06-04T12:23:02;19.40;56.80
19892;DHT22;10108;50.142;8.724;2023-06-04T12:25:29;19.50;56.00
19892;DHT22;10108;50.142;8.724;2023-06-04T12:27:56;19.50;56.30
19892;DHT22;10108;50.142;8.724;2023-06-04T12:30:22;19.50;55.90
19892;DHT22;10108;50.142;8.724;2023-06-04T12:32:49;19.40;57.30
19892;DHT22;10108;50.142;8.724;2023-06-04T12:35:16;19.40;57.00
19892;DHT22;10108;50.142;8.724;2023-06-04T12:37:42;19.40;57.90
19892;DHT22;10108;50.142;8.724;2023-06-04T12:40:09;19.40;57.70
19892;DHT22;10108;50.142;8.724;2023-06-04T12:42:35;19.50;57.90
19892;DHT22;10108;50.142;8.724;2023-06-04T12:45:01;19.50;56.70
19892;DHT22;10108;50.142;8.724;2023-06-04T12:47:27;19.50;56.90
19892;DHT22;10108;50.142;8.724;2023-06-04T12:49:53;19.60;57.10
19892;DHT22;10108;50.142;8.724;2023-06-04T12:52:19;19.50;56.50
19892;DHT22;10108;50.142;8.724;2023-06-04T12:54:45;19.50;56.80
19892;DHT22;10108;50.142;8.724;2023-06-04T12:57:12;19.50;57.30
19892;DHT22;10108;50.142;8.724;2023-06-04T12:59:38;19.50;56.80
19892;DHT22;10108;50.142;8.724;2023-06-04T13:02:04;19.50;56.80
19892;DHT22;10108;50.142;8.724;2023-06-04T13:04:30;19.50;57.90
19892;DHT22;10108;50.142;8.724;2023-06-04T13:06:56;19.50;57.80
19892;DHT22;10108;50.142;8.724;2023-06-04T13:09:25;19.50;58.10
19892;DHT22;10108;50.142;8.724;2023-06-04T13:11:54;19.60;56.70
19892;DHT22;10108;50.142;8.724;2023-06-04T13:14:20;19.60;56.40
19892;DHT22;10108;50.142;8.724;2023-06-04T13:16:46;19.60;56.90
19892;DHT22;10108;50.142;8.724;2023-06-04T13:19:14;19.60;57.30
19892;DHT22;10108;50.142;8.724;2023-06-04T13:21:40;19.60;57.90
19892;DHT22;10108;50.142;8.724;2023-06-04T13:24:09;19.70;56.80
19892;DHT22;10108;50.142;8.724;2023-06-04T13:26:36;19.70;56.20
19892;DHT22;10108;50.142;8.724;2023-06-04T13:29:04;19.70;56.70
19892;DHT22;10108;50.142;8.724;2023-06-04T13:31:30;19.80;57.90
19892;DHT22;10108;50.142;8.724;2023-06-04T13:33:56;19.90;58.40
19892;DHT22;10108;50.142;8.724;2023-06-04T13:36:23;19.90;58.00
19892;DHT22;10108;50.142;8.724;2023-06-04T13:38:49;19.90;57.70
19892;DHT22;10108;50.142;8.724;2023-06-04T13:41:18;20.00;57.70
19892;DHT22;10108;50.142;8.724;2023-06-04T13:43:44;20.00;57.30
19892;DHT22;10108;50.142;8.724;2023-06-04T13:46:10;20.00;57.10
19892;DHT22;10108;50.142;8.724;2023-06-04T13:48:36;20.00;56.60
19892;DHT22;10108;50.142;8.724;2023-06-04T13:51:02;20.00;57.10
19892;DHT22;10108;50.142;8.724;2023-06-04T13:53:29;20.00;57.70
19892;DHT22;10108;50.142;8.724;2023-06-04T13:55:55;20.00;55.90
19892;DHT22;10108;50.142;8.724;2023-06-04T13:58:25;20.10;56.00
19892;DHT22;10108;50.142;8.724;2023-06-04T14:00:51;20.10;56.50
19892;DHT22;10108;50.142;8.724;2023-06-04T14:03:17;20.10;55.50
19892;DHT22;10108;50.142;8.724;2023-06-04T14:05:44;20.10;55.90
19892;DHT22;10108;50.142;8.724;2023-06-04T14:08:10;20.20;56.80
19892;DHT22;10108;50.142;8.724;2023-06-04T14:10:38;20.20;57.00
19892;DHT22;10108;50.142;8.724;2023-06-04T14:13:07;20.20;57.80
19892;DHT22;10108;50.142;8.724;2023-06-04T14:15:34;20.20;58.10
19892;DHT22;10108;50.142;8.724;2023-06-04T14:18:00;20.20;58.30
19892;DHT22;10108;50.142;8.724;2023-06-04T14:20:27;20.10;57.90
19892;DHT22;10108;50.142;8.724;2023-06-04T14:22:53;20.10;57.30
19892;DHT22;10108;50.142;8.724;2023-06-04T14:25:19;20.10;56.40
19892;DHT22;10108;50.142;8.724;2023-06-04T14:27:45;20.10;55.60
19892;DHT22;10108;50.142;8.724;2023-06-04T14:30:11;20.20;54.80
19892;DHT22;10108;50.142;8.724;2023-06-04T14:32:37;20.20;55.20
19892;DHT22;10108;50.142;8.724;2023-06-04T14:35:04;20.20;55.20
19892;DHT22;10108;50.142;8.724;2023-06-04T14:37:31;20.20;55.00
19892;DHT22;10108;50.142;8.724;2023-06-04T14:39:57;20.20;54.30
19892;DHT22;10108;50.142;8.724;2023-06-04T14:42:23;20.20;53.00
19892;DHT22;10108;50.142;8.724;2023-06-04T14:44:49;20.30;53.20
19892;DHT22;10108;50.142;8.724;2023-06-04T14:47:15;20.40;53.70
19892;DHT22;10108;50.142;8.724;2023-06-04T14:49:41;20.50;53.50
19892;DHT22;10108;50.142;8.724;2023-06-04T14:52:07;20.50;52.90
19892;DHT22;10108;50.142;8.724;2023-06-04T14:54:34;20.40;53.80
19892;DHT22;10108;50.142;8.724;2023-06-04T14:57:01;20.50;54.50
19892;DHT22;10108;50.142;8.724;2023-06-04T14:59:28;20.40;54.10
19892;DHT22;10108;50.142;8.724;2023-06-04T15:01:54;20.40;53.60
19892;DHT22;10108;50.142;8.724;2023-06-04T15:04:20;20.30;54.00
19892;DHT22;10108;50.142;8.724;2023-06-04T15:06:46;20.30;53.50
19892;DHT22;10108;50.142;8.724;2023-06-04T15:09:13;20.30;53.70
19892;DHT22;10108;50.142;8.724;2023-06-04T15:11:39;20.20;54.20
19892;DHT22;10108;50.142;8.724;2023-06-04T15:14:06;20.20;55.60
19892;DHT22;10108;50.142;8.724;2023-06-04T15:16:32;20.20;55.60
19892;DHT22;10108;50.142;8.724;2023-06-04T15:18:58;20.20;55.30
19892;DHT22;10108;50.142;8.724;2023-06-04T15:21:24;20.20;55.50
19892;DHT22;10108;50.142;8.724;2023-06-04T15:23:50;20.20;57.30
19892;DHT22;10108;50.142;8.724;2023-06-04T15:26:16;20.20;56.20
19892;DHT22;10108;50.142;8.724;2023-06-04T15:28:43;20.10;55.70
19892;DHT22;10108;50.142;8.724;2023-06-04T15:31:09;20.20;55.20
19892;DHT22;10108;50.142;8.724;2023-06-04T15:33:36;20.20;54.80
19892;DHT22;10108;50.142;8.724;2023-06-04T15:36:02;20.30;55.20
19892;DHT22;10108;50.142;8.724;2023-06-04T15:38:28;20.30;55.50
19892;DHT22;10108;50.142;8.724;2023-06-04T15:40:54;20.30;56.00
19892;DHT22;10108;50.142;8.724;2023-06-04T15:43:20;20.40;56.60
19892;DHT22;10108;50.142;8.724;2023-06-04T15:45:46;20.40;56.80